Time;durP1;ratioP1;P1;durP2;ratioP2;P2;SDS_P1;SDS_P2;PMS_P1;PMS_P2;Temp;Humidity;BMP_temperature;BMP_pressure;BME280_temperature;BME280_humidity;BME280_pressure;Samples;Min_cycle;Max_cycle;Signal;HPM_P1;HPM_P2
2022/10/15 00:02:06;;;;;;;28.58;22.48;;;13.10;99.90;;;;;;4975442;28;20045;-77
2022/10/15 00:04:32;;;;;;;30.13;23.27;;;13.00;99.90;;;;;;4961822;28;20176;-76
2022/10/15 00:06:58;;;;;;;29.30;22.90;;;13.00;99.90;;;;;;4978621;28;20374;-76
2022/10/15 00:09:24;;;;;;;31.90;22.92;;;13.10;99.90;;;;;;4993674;28;20046;-76
2022/10/15 00:11:50;;;;;;;29.45;22.50;;;13.20;99.90;;;;;;4993689;28;20129;-76
2022/10/15 00:14:15;;;;;;;30.00;23.83;;;13.10;99.90;;;;;;4977101;28;20045;-76
2022/10/15 00:16:41;;;;;;;28.92;23.00;;;13.00;99.90;;;;;;4977642;28;20074;-76
2022/10/15 00:19:08;;;;;;;33.65;24.10;;;13.00;99.90;;;;;;4994236;28;20052;-75
2022/10/15 00:21:34;;;;;;;32.75;23.90;;;13.00;99.90;;;;;;4975829;28;20412;-75
2022/10/15 00:23:59;;;;;;;31.20;23.90;;;13.00;99.90;;;;;;4976789;28;20105;-75
2022/10/15 00:26:27;;;;;;;32.97;25.13;;;13.00;99.90;;;;;;4976351;28;20385;-76
2022/10/15 00:28:54;;;;;;;33.60;24.05;;;13.00;99.90;;;;;;4977927;28;20059;-75
2022/10/15 00:31:23;;;;;;;33.50;23.67;;;13.00;99.90;;;;;;4993263;28;20412;-76
2022/10/15 00:33:50;;;;;;;32.08;23.20;;;13.00;99.90;;;;;;4977937;28;20041;-75
2022/10/15 00:36:19;;;;;;;33.30;24.00;;;13.00;99.90;;;;;;4977056;28;20563;-76
2022/10/15 00:38:45;;;;;;;32.03;24.75;;;13.00;99.90;;;;;;4994100;28;20461;-75
2022/10/15 00:41:19;;;;;;;31.88;25.00;;;13.00;99.90;;;;;;4993325;28;20084;-75
2022/10/15 00:43:47;;;;;;;30.50;23.60;;;13.00;99.90;;;;;;4993873;28;20038;-75
2022/10/15 00:46:30;;;;;;;32.20;24.63;;;13.00;99.90;;;;;;4993146;28;20050;-75
2022/10/15 00:49:11;;;;;;;30.25;23.25;;;13.00;99.90;;;;;;4977729;28;20121;-76
2022/10/15 00:51:42;;;;;;;30.88;23.90;;;13.00;99.90;;;;;;4976962;28;20514;-75
2022/10/15 00:54:10;;;;;;;32.38;23.88;;;13.00;99.90;;;;;;4976966;28;20041;-75
2022/10/15 00:56:38;;;;;;;31.80;24.92;;;12.90;99.90;;;;;;4991261;28;20045;-75
2022/10/15 00:59:05;;;;;;;32.42;24.35;;;12.90;99.90;;;;;;4992628;28;20508;-75
2022/10/15 01:01:31;;;;;;;31.88;24.25;;;12.90;99.90;;;;;;4993134;28;20406;-75
2022/10/15 01:03:57;;;;;;;31.63;24.88;;;13.00;99.90;;;;;;4977593;28;20042;-75
2022/10/15 01:06:23;;;;;;;35.00;23.88;;;12.90;99.90;;;;;;4992377;28;20496;-75
2022/10/15 01:08:49;;;;;;;32.90;24.30;;;12.90;99.90;;;;;;4977104;28;20125;-75
2022/10/15 01:11:29;;;;;;;33.33;24.05;;;12.90;99.90;;;;;;4993565;28;20134;-75
2022/10/15 01:14:04;;;;;;;36.47;24.17;;;12.90;99.90;;;;;;4993348;28;20083;-75
2022/10/15 01:16:45;;;;;;;31.98;24.95;;;12.90;99.90;;;;;;4976308;28;20042;-75
2022/10/15 01:19:26;;;;;;;30.70;24.25;;;12.80;99.90;;;;;;4976870;28;20073;-75
2022/10/15 01:22:01;;;;;;;34.83;25.05;;;12.80;99.90;;;;;;4993191;28;20042;-75
2022/10/15 01:24:58;;;;;;;31.30;23.67;;;12.80;99.90;;;;;;5006722;28;20049;-75
2022/10/15 01:27:40;;;;;;;31.08;23.25;;;12.90;99.90;;;;;;5020891;28;20047;-75
2022/10/15 01:30:30;;;;;;;32.40;23.60;;;12.90;99.90;;;;;;5005365;28;20052;-74
2022/10/15 01:33:33;;;;;;;31.52;22.77;;;12.90;99.90;;;;;;4989789;28;20050;-75
2022/10/15 01:36:26;;;;;;;29.27;23.02;;;12.90;99.90;;;;;;4986838;28;20109;-75
2022/10/15 01:39:19;;;;;;;35.08;26.25;;;12.90;99.90;;;;;;4967070;28;20054;-75
2022/10/15 01:42:05;;;;;;;29.83;23.70;;;12.80;99.90;;;;;;4976938;28;20050;-75
2022/10/15 01:44:35;;;;;;;32.30;24.55;;;12.80;99.90;;;;;;4991199;28;20046;-75
2022/10/15 01:47:07;;;;;;;33.33;25.27;;;12.80;99.90;;;;;;4992814;28;20038;-75
2022/10/15 01:49:40;;;;;;;30.48;24.58;;;12.80;99.90;;;;;;5009052;28;20042;-75
2022/10/15 01:52:11;;;;;;;31.50;24.52;;;12.80;99.90;;;;;;4989519;28;20049;-75
2022/10/15 01:54:38;;;;;;;33.33;24.03;;;12.80;99.90;;;;;;4990395;28;20046;-75
2022/10/15 01:57:05;;;;;;;29.63;22.20;;;12.80;99.90;;;;;;4974409;28;20046;-75
2022/10/15 01:59:32;;;;;;;33.33;25.42;;;12.90;99.90;;;;;;4991330;28;20050;-75
2022/10/15 02:01:58;;;;;;;32.40;24.48;;;12.80;99.90;;;;;;4992754;28;20046;-75
2022/10/15 02:04:26;;;;;;;30.73;23.77;;;12.80;99.90;;;;;;4990902;28;20565;-75
2022/10/15 02:07:04;;;;;;;35.95;25.65;;;12.80;99.90;;;;;;4989488;28;20051;-75
2022/10/15 02:09:36;;;;;;;31.05;23.95;;;12.80;99.90;;;;;;4973093;28;20049;-75
2022/10/15 02:12:41;;;;;;;34.20;25.48;;;12.80;99.90;;;;;;4973090;28;20042;-74
2022/10/15 02:15:09;;;;;;;33.53;24.42;;;12.80;99.90;;;;;;4959763;28;20092;-75
2022/10/15 02:17:52;;;;;;;31.15;25.00;;;12.80;99.90;;;;;;4973345;28;20396;-74
2022/10/15 02:20:33;;;;;;;34.15;25.83;;;12.80;99.90;;;;;;4996488;28;20053;-75
2022/10/15 02:23:06;;;;;;;31.70;24.92;;;12.90;99.90;;;;;;4975231;28;20038;-76
2022/10/15 02:25:34;;;;;;;31.58;24.92;;;12.90;99.90;;;;;;5023441;28;20488;-75
2022/10/15 02:28:02;;;;;;;36.60;25.98;;;12.80;99.90;;;;;;4992368;28;20038;-74
2022/10/15 02:30:30;;;;;;;34.08;25.25;;;12.80;99.90;;;;;;4991646;28;20057;-74
2022/10/15 02:32:58;;;;;;;31.17;24.60;;;12.80;99.90;;;;;;4992308;28;20527;-74
2022/10/15 02:35:26;;;;;;;30.95;24.80;;;12.80;99.90;;;;;;4975566;28;20046;-74
2022/10/15 02:37:54;;;;;;;32.75;24.92;;;12.80;99.90;;;;;;4976337;28;20516;-74
2022/10/15 02:40:27;;;;;;;34.88;25.85;;;12.80;99.90;;;;;;4976199;28;20140;-75
2022/10/15 02:42:53;;;;;;;32.42;24.70;;;12.90;99.90;;;;;;4996498;28;20370;-74
2022/10/15 02:45:20;;;;;;;34.03;26.50;;;12.90;99.90;;;;;;4979165;28;20045;-75
2022/10/15 02:47:45;;;;;;;33.65;25.17;;;12.80;99.90;;;;;;4996336;28;20070;-74
2022/10/15 02:50:11;;;;;;;31.27;24.30;;;12.90;99.90;;;;;;4979919;28;20132;-74
2022/10/15 02:52:36;;;;;;;32.90;24.35;;;12.90;99.90;;;;;;4978630;28;20038;-74
2022/10/15 02:55:02;;;;;;;31.25;24.27;;;12.80;99.90;;;;;;5010599;28;20120;-74
2022/10/15 02:57:28;;;;;;;36.38;24.67;;;12.80;99.90;;;;;;5011332;28;20050;-74
2022/10/15 02:59:53;;;;;;;33.30;25.38;;;12.80;99.90;;;;;;4979412;28;20619;-74
2022/10/15 03:02:19;;;;;;;31.00;24.05;;;12.80;99.90;;;;;;4995803;28;20126;-74
2022/10/15 03:04:45;;;;;;;31.27;24.08;;;12.80;99.90;;;;;;4978718;28;20039;-74
2022/10/15 03:07:10;;;;;;;30.45;23.67;;;12.80;99.90;;;;;;4978872;28;20116;-74
2022/10/15 03:09:36;;;;;;;30.67;23.20;;;12.80;99.90;;;;;;4995811;28;20038;-74
2022/10/15 03:12:01;;;;;;;31.52;23.08;;;12.80;99.90;;;;;;4979672;28;20042;-74
2022/10/15 03:14:27;;;;;;;33.33;24.30;;;12.70;99.90;;;;;;4978703;28;20476;-74
2022/10/15 03:16:52;;;;;;;30.40;23.23;;;12.80;99.90;;;;;;4979364;28;20125;-74
2022/10/15 03:19:18;;;;;;;31.45;23.15;;;12.80;99.90;;;;;;4979073;28;20042;-74
2022/10/15 03:21:44;;;;;;;31.65;23.00;;;12.70;99.90;;;;;;4977461;28;20097;-74
2022/10/15 03:24:09;;;;;;;31.58;22.70;;;12.70;99.90;;;;;;4995391;28;20045;-74
2022/10/15 03:26:35;;;;;;;29.15;22.05;;;12.80;99.90;;;;;;4994328;28;20471;-74
2022/10/15 03:29:01;;;;;;;28.17;21.38;;;12.80;99.90;;;;;;4979001;28;20045;-74
2022/10/15 03:31:26;;;;;;;31.33;23.52;;;12.80;99.90;;;;;;4979112;28;20169;-74
2022/10/15 03:33:52;;;;;;;28.08;21.10;;;12.80;99.90;;;;;;4995096;28;20030;-74
2022/10/15 03:36:17;;;;;;;29.73;22.30;;;12.80;99.90;;;;;;4978160;28;20069;-74
2022/10/15 03:38:43;;;;;;;30.92;23.27;;;12.70;99.90;;;;;;4978952;28;20121;-74
2022/10/15 03:41:08;;;;;;;30.63;22.60;;;12.70;99.90;;;;;;4994930;28;20096;-74
2022/10/15 03:43:34;;;;;;;33.38;23.85;;;12.70;99.90;;;;;;4994289;28;20042;-74
2022/10/15 03:46:04;;;;;;;30.70;22.70;;;12.70;99.90;;;;;;4993978;28;20045;-74
2022/10/15 03:48:29;;;;;;;28.95;21.60;;;12.70;99.90;;;;;;4994563;28;20035;-74
2022/10/15 03:50:55;;;;;;;30.30;21.67;;;12.70;99.90;;;;;;4978593;28;20046;-74
2022/10/15 03:53:22;;;;;;;29.92;22.95;;;12.70;99.90;;;;;;4991439;28;20116;-74
2022/10/15 03:55:47;;;;;;;27.48;22.23;;;12.70;99.90;;;;;;4976534;28;20140;-74
2022/10/15 03:58:13;;;;;;;28.52;21.60;;;12.70;99.90;;;;;;5027252;28;20520;-74
2022/10/15 04:00:43;;;;;;;29.33;21.67;;;12.70;99.90;;;;;;4987526;28;20034;-74
2022/10/15 04:03:09;;;;;;;31.45;22.58;;;12.70;99.90;;;;;;5010734;28;20046;-74
2022/10/15 04:05:35;;;;;;;29.65;22.02;;;12.60;99.90;;;;;;4994492;28;20042;-74
2022/10/15 04:08:01;;;;;;;29.90;21.98;;;12.60;99.90;;;;;;4999118;28;20042;-74
2022/10/15 04:10:27;;;;;;;29.60;22.50;;;12.60;99.90;;;;;;5021506;28;20046;-74
2022/10/15 04:12:53;;;;;;;29.73;22.13;;;12.60;99.90;;;;;;4976172;28;20043;-74
2022/10/15 04:15:18;;;;;;;29.80;22.08;;;12.60;99.90;;;;;;4994445;28;20045;-74
2022/10/15 04:17:44;;;;;;;30.65;22.50;;;12.60;99.90;;;;;;4992532;28;20048;-74
2022/10/15 04:20:10;;;;;;;32.30;23.90;;;12.70;99.90;;;;;;4993364;28;20418;-74
2022/10/15 04:22:36;;;;;;;33.75;23.10;;;12.60;99.90;;;;;;4976402;28;20125;-73
2022/10/15 04:25:02;;;;;;;30.95;22.58;;;12.60;99.90;;;;;;4993419;28;20038;-74
2022/10/15 04:27:28;;;;;;;30.58;22.35;;;12.60;99.90;;;;;;4977375;28;20089;-73
2022/10/15 04:29:53;;;;;;;35.35;23.13;;;12.60;99.90;;;;;;4991517;28;20121;-73
2022/10/15 04:32:19;;;;;;;34.33;24.23;;;12.60;99.90;;;;;;4977400;28;20448;-74
2022/10/15 04:34:46;;;;;;;33.45;23.42;;;12.60;99.90;;;;;;4976405;28;20046;-74
2022/10/15 04:37:12;;;;;;;35.10;23.45;;;12.60;99.90;;;;;;4977210;28;20122;-74
2022/10/15 04:39:37;;;;;;;32.72;24.13;;;12.50;99.90;;;;;;4983577;28;20122;-74
2022/10/15 04:42:03;;;;;;;32.40;22.60;;;12.50;99.90;;;;;;4977012;28;20510;-74
2022/10/15 04:44:29;;;;;;;35.20;24.90;;;12.50;99.90;;;;;;4992003;28;20049;-74
2022/10/15 04:46:54;;;;;;;32.78;23.00;;;12.50;99.90;;;;;;5013059;28;20172;-74
2022/10/15 04:49:20;;;;;;;34.38;23.75;;;12.50;99.90;;;;;;5013602;28;20046;-73
2022/10/15 04:51:46;;;;;;;35.63;24.65;;;12.50;99.90;;;;;;4986887;28;20045;-74
2022/10/15 04:54:11;;;;;;;35.55;24.05;;;12.50;99.90;;;;;;4977459;28;20042;-73
2022/10/15 04:56:37;;;;;;;35.92;25.40;;;12.50;99.90;;;;;;4977580;28;20049;-74
2022/10/15 04:59:06;;;;;;;34.97;25.58;;;12.50;99.90;;;;;;5009485;28;20046;-73
2022/10/15 05:01:31;;;;;;;33.67;25.05;;;12.50;99.90;;;;;;4992047;28;20053;-74
2022/10/15 05:03:57;;;;;;;32.63;24.45;;;12.40;99.90;;;;;;4977121;28;20034;-74
2022/10/15 05:06:22;;;;;;;36.30;25.05;;;12.40;99.90;;;;;;5026295;28;20034;-74
2022/10/15 05:08:48;;;;;;;37.22;25.08;;;12.40;99.90;;;;;;5009790;28;20041;-73
2022/10/15 05:11:20;;;;;;;34.53;25.33;;;12.40;99.90;;;;;;4993553;28;20093;-73
2022/10/15 05:13:46;;;;;;;34.60;25.13;;;12.40;99.90;;;;;;5009467;28;20134;-73
2022/10/15 05:16:20;;;;;;;37.80;26.10;;;12.40;99.90;;;;;;5026434;28;20078;-73
2022/10/15 05:18:47;;;;;;;35.83;26.00;;;12.40;99.90;;;;;;5026100;28;20088;-74
2022/10/15 05:21:13;;;;;;;36.08;26.27;;;12.40;99.90;;;;;;5000796;28;20045;-74
2022/10/15 05:23:40;;;;;;;38.30;27.08;;;12.40;99.90;;;;;;4991087;28;20050;-74
2022/10/15 05:26:07;;;;;;;36.67;25.75;;;12.40;99.90;;;;;;4976160;28;20501;-74
2022/10/15 05:28:33;;;;;;;38.53;26.38;;;12.40;99.90;;;;;;4976161;28;20096;-73
2022/10/15 05:31:07;;;;;;;39.67;26.88;;;12.30;99.90;;;;;;5024589;28;20073;-73
2022/10/15 05:33:33;;;;;;;38.50;26.45;;;12.40;99.90;;;;;;5022968;28;20452;-74
2022/10/15 05:36:13;;;;;;;35.45;26.00;;;12.40;99.90;;;;;;4985010;28;20048;-74
2022/10/15 05:38:40;;;;;;;37.50;27.75;;;12.40;99.90;;;;;;4992176;28;20088;-74
2022/10/15 05:41:05;;;;;;;36.47;26.23;;;12.40;99.90;;;;;;4991937;28;20030;-74
2022/10/15 05:43:31;;;;;;;43.72;28.23;;;12.40;99.90;;;;;;4992810;28;20061;-74
2022/10/15 05:45:57;;;;;;;37.83;26.80;;;12.40;99.90;;;;;;4975749;28;20034;-74
2022/10/15 05:48:23;;;;;;;40.85;27.52;;;12.40;99.90;;;;;;4976652;28;20047;-74
2022/10/15 05:50:48;;;;;;;40.08;27.38;;;12.30;99.90;;;;;;4991490;28;20042;-74
2022/10/15 05:53:14;;;;;;;44.22;28.58;;;12.40;99.90;;;;;;4975359;28;20049;-74
2022/10/15 05:55:40;;;;;;;41.05;28.58;;;12.40;99.90;;;;;;4975758;28;20555;-74
2022/10/15 05:58:05;;;;;;;43.70;28.67;;;12.30;99.90;;;;;;4991840;28;20070;-74
2022/10/15 06:00:32;;;;;;;43.10;27.60;;;12.30;99.90;;;;;;4990850;28;20046;-74
2022/10/15 06:02:57;;;;;;;43.25;28.92;;;12.30;99.90;;;;;;4974427;28;20030;-74
2022/10/15 06:05:23;;;;;;;41.13;28.35;;;12.30;99.90;;;;;;5008755;28;20489;-74
2022/10/15 06:07:49;;;;;;;43.47;28.80;;;12.30;99.90;;;;;;4992810;28;20042;-74
2022/10/15 06:10:15;;;;;;;44.28;28.35;;;12.30;99.90;;;;;;4991715;28;20048;-74
2022/10/15 06:12:41;;;;;;;42.83;28.60;;;12.30;99.90;;;;;;4974501;28;20042;-74
2022/10/15 06:15:08;;;;;;;42.90;29.63;;;12.30;99.90;;;;;;4975011;28;20042;-74
2022/10/15 06:17:33;;;;;;;43.70;28.45;;;12.30;99.90;;;;;;4992473;28;20038;-74
2022/10/15 06:19:59;;;;;;;42.55;28.48;;;12.40;99.90;;;;;;4991376;28;20535;-74
2022/10/15 06:22:24;;;;;;;43.47;30.48;;;12.40;99.90;;;;;;4991161;28;20113;-74
2022/10/15 06:24:50;;;;;;;45.83;30.73;;;12.40;99.90;;;;;;4974769;28;20113;-74
2022/10/15 06:27:15;;;;;;;43.28;29.63;;;12.40;99.90;;;;;;4992375;28;20042;-74
2022/10/15 06:29:41;;;;;;;44.28;30.58;;;12.40;99.90;;;;;;4990423;28;20101;-74
2022/10/15 06:32:10;;;;;;;46.92;30.25;;;12.40;99.90;;;;;;4974159;28;20038;-74
2022/10/15 06:34:36;;;;;;;43.38;30.02;;;12.40;99.90;;;;;;4975021;28;20038;-74
2022/10/15 06:37:02;;;;;;;45.70;30.02;;;12.50;99.90;;;;;;4976187;28;20539;-74
2022/10/15 06:39:27;;;;;;;44.78;29.40;;;12.40;99.90;;;;;;4974391;28;20047;-74
2022/10/15 06:41:53;;;;;;;41.65;29.30;;;12.40;99.90;;;;;;4991377;28;20088;-74
2022/10/15 06:44:18;;;;;;;39.38;28.30;;;12.40;99.90;;;;;;4991539;28;20096;-74
2022/10/15 06:46:44;;;;;;;43.25;29.73;;;12.40;99.90;;;;;;4992282;28;20115;-74
2022/10/15 06:49:09;;;;;;;44.42;30.20;;;12.40;99.90;;;;;;4975176;28;20035;-74
2022/10/15 06:51:36;;;;;;;43.13;29.35;;;12.50;99.90;;;;;;4977627;28;20041;-74
2022/10/15 06:54:02;;;;;;;44.80;29.98;;;12.50;99.90;;;;;;4975066;28;20039;-74
2022/10/15 06:56:28;;;;;;;43.05;30.25;;;12.50;99.90;;;;;;5007002;28;20038;-74
2022/10/15 06:58:54;;;;;;;42.25;29.42;;;12.50;99.90;;;;;;4990988;28;20058;-74
2022/10/15 07:01:19;;;;;;;43.17;29.63;;;12.50;99.90;;;;;;4972623;28;20158;-74
2022/10/15 07:03:51;;;;;;;42.10;29.35;;;12.40;99.90;;;;;;4975641;28;20408;-74
2022/10/15 07:06:17;;;;;;;41.15;29.08;;;12.50;99.90;;;;;;4974771;28;20045;-74
2022/10/15 07:08:43;;;;;;;41.85;28.45;;;12.50;99.90;;;;;;4996367;28;20038;-74
2022/10/15 07:11:09;;;;;;;44.78;29.25;;;12.50;99.90;;;;;;5007602;28;20049;-75
2022/10/15 07:13:35;;;;;;;41.60;30.15;;;12.60;99.90;;;;;;4975577;28;20042;-75
2022/10/15 07:16:06;;;;;;;42.53;29.20;;;12.60;99.90;;;;;;5024700;28;20058;-75
2022/10/15 07:18:32;;;;;;;41.92;28.77;;;12.60;99.90;;;;;;4975710;28;20089;-74
2022/10/15 07:20:58;;;;;;;43.05;29.08;;;12.60;99.90;;;;;;4975663;28;20049;-75
2022/10/15 07:23:23;;;;;;;41.80;28.20;;;12.60;99.90;;;;;;5008093;28;20564;-74
2022/10/15 07:25:49;;;;;;;41.33;28.50;;;12.70;99.90;;;;;;5024591;28;20034;-75
2022/10/15 07:28:15;;;;;;;41.85;29.23;;;12.70;99.90;;;;;;4977877;28;20031;-75
2022/10/15 07:30:40;;;;;;;42.63;29.60;;;12.70;99.90;;;;;;5010992;28;20042;-75
2022/10/15 07:33:06;;;;;;;40.65;28.90;;;12.80;99.90;;;;;;4995147;28;20496;-75
2022/10/15 07:35:32;;;;;;;41.22;29.27;;;12.80;99.90;;;;;;5011205;28;20038;-75
2022/10/15 07:38:01;;;;;;;41.90;29.65;;;12.80;99.90;;;;;;4978533;28;20519;-75
2022/10/15 07:40:27;;;;;;;42.03;28.90;;;12.80;99.90;;;;;;4995149;28;20042;-75
2022/10/15 07:42:53;;;;;;;40.45;28.83;;;12.80;99.90;;;;;;4995100;28;20507;-75
2022/10/15 07:45:19;;;;;;;41.67;27.80;;;12.80;99.90;;;;;;5026887;28;20042;-75
2022/10/15 07:47:44;;;;;;;40.55;28.60;;;12.90;99.90;;;;;;4978461;28;20091;-75
2022/10/15 07:50:10;;;;;;;40.05;28.27;;;12.80;99.90;;;;;;4994950;28;20600;-75
2022/10/15 07:52:35;;;;;;;39.22;27.70;;;12.90;99.90;;;;;;4994569;28;20046;-75
2022/10/15 07:55:01;;;;;;;38.42;25.88;;;12.90;99.90;;;;;;5024018;28;20046;-76
2022/10/15 07:57:26;;;;;;;39.13;27.70;;;13.00;99.90;;;;;;4977738;28;20065;-79
2022/10/15 07:59:52;;;;;;;38.85;28.40;;;13.20;99.90;;;;;;4993977;28;20467;-75
2022/10/15 08:02:19;;;;;;;39.17;26.98;;;13.30;99.90;;;;;;5010501;28;20042;-75
2022/10/15 08:04:45;;;;;;;42.10;28.15;;;13.40;99.90;;;;;;4992405;28;20038;-75
2022/10/15 08:07:10;;;;;;;39.60;28.35;;;13.50;99.90;;;;;;4978722;28;20038;-75
2022/10/15 08:09:36;;;;;;;42.38;27.38;;;13.60;99.90;;;;;;4994612;28;20129;-75
2022/10/15 08:12:02;;;;;;;38.85;27.35;;;13.60;99.90;;;;;;4994481;28;20042;-75
2022/10/15 08:14:27;;;;;;;39.67;27.02;;;13.70;99.90;;;;;;4993797;28;20046;-75
2022/10/15 08:16:53;;;;;;;40.15;28.40;;;13.70;99.90;;;;;;4978201;28;20089;-75
2022/10/15 08:19:19;;;;;;;41.47;28.40;;;13.80;99.90;;;;;;4993551;28;20044;-75
2022/10/15 08:21:44;;;;;;;39.67;27.63;;;13.80;99.90;;;;;;4992510;28;20034;-75
2022/10/15 08:24:10;;;;;;;39.40;27.23;;;13.90;99.90;;;;;;4977329;28;20069;-75
2022/10/15 08:26:36;;;;;;;44.35;31.33;;;14.00;99.90;;;;;;4993764;28;20432;-75
2022/10/15 08:29:01;;;;;;;38.25;28.35;;;14.00;99.90;;;;;;4994438;28;20056;-75
2022/10/15 08:31:27;;;;;;;37.88;26.92;;;14.10;99.90;;;;;;4977338;28;20045;-76
2022/10/15 08:33:52;;;;;;;37.22;27.05;;;14.10;99.90;;;;;;4993995;28;20045;-76
2022/10/15 08:36:18;;;;;;;37.60;27.15;;;14.10;99.90;;;;;;4993570;28;20038;-75
2022/10/15 08:38:44;;;;;;;37.33;27.55;;;14.20;99.90;;;;;;4977478;28;20456;-75
2022/10/15 08:41:44;;;;;;;37.55;26.77;;;14.20;99.90;;;;;;4992493;28;20034;-76
2022/10/15 08:44:21;;;;;;;35.45;26.05;;;14.20;99.90;;;;;;4993395;28;20125;-76
2022/10/15 08:46:51;;;;;;;36.58;27.13;;;14.10;99.90;;;;;;4992328;28;20096;-76
2022/10/15 08:49:40;;;;;;;36.47;26.83;;;14.20;99.90;;;;;;4993458;28;20058;-76
2022/10/15 08:52:42;;;;;;;36.03;26.48;;;14.20;99.90;;;;;;4974885;28;20115;-76
2022/10/15 08:55:15;;;;;;;38.83;27.98;;;14.20;99.90;;;;;;4990494;28;20125;-76
2022/10/15 08:57:57;;;;;;;36.28;27.90;;;14.20;99.90;;;;;;4991796;28;20516;-76
2022/10/15 09:00:29;;;;;;;33.53;26.50;;;14.30;99.90;;;;;;4991712;28;20046;-76
2022/10/15 09:03:08;;;;;;;35.65;26.90;;;14.30;99.90;;;;;;4991427;28;20034;-76
2022/10/15 09:06:15;;;;;;;36.08;27.52;;;14.40;99.90;;;;;;4976360;28;20042;-76
2022/10/15 09:09:18;;;;;;;37.13;27.52;;;14.50;99.90;;;;;;4980648;28;20046;-76
2022/10/15 09:11:55;;;;;;;35.67;26.45;;;14.50;99.90;;;;;;5021804;28;20049;-76
2022/10/15 09:14:29;;;;;;;34.63;26.70;;;14.60;99.90;;;;;;4981752;28;20042;-77
2022/10/15 09:16:57;;;;;;;33.22;24.95;;;14.60;99.90;;;;;;4973803;28;20034;-77
2022/10/15 09:19:24;;;;;;;35.28;26.17;;;14.70;99.90;;;;;;4967304;28;20121;-77
2022/10/15 09:21:51;;;;;;;32.92;24.83;;;14.70;99.90;;;;;;4975140;28;20057;-77
2022/10/15 09:24:26;;;;;;;31.20;23.52;;;14.60;99.90;;;;;;4976723;28;20433;-77
2022/10/15 09:27:14;;;;;;;31.70;23.67;;;14.60;99.90;;;;;;4992806;28;20038;-77
2022/10/15 09:29:45;;;;;;;34.45;24.05;;;14.60;99.90;;;;;;5008935;28;20499;-77
2022/10/15 09:32:30;;;;;;;32.40;24.65;;;14.50;99.90;;;;;;4973282;28;20047;-77
2022/10/15 09:35:30;;;;;;;35.33;26.70;;;14.50;99.90;;;;;;4999998;28;20412;-77
2022/10/15 09:38:24;;;;;;;35.65;26.30;;;14.40;99.90;;;;;;4977401;28;20077;-77
2022/10/15 09:41:02;;;;;;;35.22;25.92;;;14.40;99.90;;;;;;4986010;28;20117;-77
2022/10/15 09:43:36;;;;;;;35.20;25.38;;;14.30;99.90;;;;;;4987568;28;20066;-77
2022/10/15 09:46:03;;;;;;;35.50;26.25;;;14.40;99.90;;;;;;4971512;28;20501;-77
2022/10/15 09:48:32;;;;;;;36.53;25.17;;;14.20;99.90;;;;;;4973403;28;20069;-77
2022/10/15 09:51:06;;;;;;;34.80;24.52;;;14.20;99.90;;;;;;4990454;28;20087;-77
2022/10/15 09:53:59;;;;;;;34.85;23.00;;;14.20;99.90;;;;;;5008739;28;20039;-77
2022/10/15 09:56:32;;;;;;;31.17;20.13;;;14.30;99.90;;;;;;4990487;28;20064;-77
2022/10/15 09:58:58;;;;;;;28.40;19.52;;;14.20;99.90;;;;;;4976386;28;20386;-77
2022/10/15 10:01:26;;;;;;;29.17;18.70;;;14.20;99.90;;;;;;4989136;28;20053;-77
2022/10/15 10:04:13;;;;;;;31.67;19.85;;;14.10;99.90;;;;;;4994486;28;20038;-76
2022/10/15 10:06:50;;;;;;;30.95;19.38;;;14.20;99.90;;;;;;4981327;28;20038;-77
2022/10/15 10:09:37;;;;;;;26.70;17.23;;;14.10;99.90;;;;;;4974062;28;20595;-77
2022/10/15 10:12:06;;;;;;;26.50;17.65;;;14.10;99.90;;;;;;5008427;28;20396;-76
2022/10/15 10:14:53;;;;;;;25.38;16.67;;;14.10;99.90;;;;;;4991942;28;20039;-76
2022/10/15 10:17:21;;;;;;;24.15;15.82;;;14.00;99.90;;;;;;5018554;28;20125;-77
2022/10/15 10:20:02;;;;;;;25.70;16.98;;;14.00;99.90;;;;;;5000655;28;20057;-77
2022/10/15 10:22:28;;;;;;;27.60;17.15;;;14.10;99.90;;;;;;5021962;28;20161;-76
2022/10/15 10:24:54;;;;;;;25.20;16.73;;;14.00;99.90;;;;;;4992131;28;20547;-76
2022/10/15 10:27:26;;;;;;;26.58;17.63;;;14.00;99.90;;;;;;4975466;28;20073;-76
2022/10/15 10:30:03;;;;;;;29.08;17.77;;;14.00;99.90;;;;;;4975215;28;20048;-77
2022/10/15 10:32:31;;;;;;;27.13;17.60;;;14.10;99.90;;;;;;4989973;28;20050;-77
2022/10/15 10:34:59;;;;;;;27.20;18.58;;;14.10;99.90;;;;;;4973752;28;20046;-73
2022/10/15 10:37:26;;;;;;;29.35;17.65;;;14.10;99.90;;;;;;4973593;28;20220;-73
2022/10/15 10:39:56;;;;;;;27.65;18.20;;;14.00;99.90;;;;;;5008380;28;20114;-77
2022/10/15 10:42:29;;;;;;;25.73;16.63;;;14.10;99.90;;;;;;5023919;28;20042;-77
2022/10/15 10:44:55;;;;;;;28.40;17.88;;;14.20;99.90;;;;;;5005587;28;20045;-77
2022/10/15 10:47:25;;;;;;;28.70;18.00;;;14.20;99.90;;;;;;4974777;28;20031;-78
2022/10/15 10:49:58;;;;;;;27.80;17.55;;;14.20;99.90;;;;;;4991950;28;20042;-77
2022/10/15 10:52:25;;;;;;;27.17;17.23;;;14.20;99.90;;;;;;4975801;28;20053;-78
2022/10/15 10:54:54;;;;;;;30.42;17.65;;;14.30;99.90;;;;;;4990823;28;20396;-78
2022/10/15 10:57:39;;;;;;;26.45;17.77;;;14.30;99.90;;;;;;5023367;28;20054;-75
2022/10/15 11:00:07;;;;;;;27.17;18.00;;;14.30;99.90;;;;;;4991104;28;20043;-79
2022/10/15 11:02:37;;;;;;;28.60;18.08;;;14.30;99.90;;;;;;4976878;28;20038;-79
2022/10/15 11:05:03;;;;;;;26.38;16.40;;;14.40;99.90;;;;;;5011027;28;20481;-79
2022/10/15 11:07:34;;;;;;;28.58;18.05;;;14.40;99.90;;;;;;4994000;28;20042;-79
2022/10/15 11:10:30;;;;;;;24.10;13.95;;;14.50;99.90;;;;;;4977752;28;20050;-72
2022/10/15 11:13:13;;;;;;;24.00;16.10;;;14.70;99.90;;;;;;4994951;28;20057;-75
2022/10/15 11:15:48;;;;;;;25.73;16.63;;;14.70;99.90;;;;;;4994654;28;20046;-75
2022/10/15 11:18:23;;;;;;;25.23;15.75;;;14.70;99.90;;;;;;4978445;28;20544;-75
2022/10/15 11:21:17;;;;;;;24.10;16.23;;;14.70;99.90;;;;;;4992667;28;20042;-75
2022/10/15 11:24:08;;;;;;;24.75;15.85;;;14.80;99.90;;;;;;5027108;28;20396;-75
2022/10/15 11:27:03;;;;;;;23.05;15.80;;;14.80;99.90;;;;;;4994962;28;20439;-75
2022/10/15 11:29:58;;;;;;;23.73;16.02;;;14.80;99.90;;;;;;4972558;28;20039;-75
2022/10/15 11:32:54;;;;;;;23.25;15.77;;;14.70;99.90;;;;;;4978200;28;20129;-75
2022/10/15 11:35:47;;;;;;;23.65;15.75;;;14.60;99.90;;;;;;5007933;28;20054;-75
2022/10/15 11:38:21;;;;;;;20.90;14.48;;;14.70;99.90;;;;;;4991437;28;20081;-75
2022/10/15 11:41:04;;;;;;;24.58;15.68;;;14.70;99.90;;;;;;4994344;28;20066;-81
2022/10/15 11:43:39;;;;;;;;;;;14.70;99.90;;;;;;4977338;28;20034;-75
2022/10/15 11:46:27;;;;;;;16.92;10.70;;;14.70;99.90;;;;;;5027193;28;19921;-74
2022/10/15 11:49:17;;;;;;;23.15;15.68;;;14.80;99.90;;;;;;4995021;28;20485;-75
2022/10/15 11:52:25;;;;;;;21.05;14.68;;;14.80;99.90;;;;;;4994073;28;20042;-75
2022/10/15 11:55:04;;;;;;;23.52;14.43;;;14.80;99.90;;;;;;4993750;28;20488;-74
2022/10/15 11:57:32;;;;;;;19.80;14.90;;;14.80;99.90;;;;;;4993456;28;20565;-74
2022/10/15 12:00:41;;;;;;;20.35;15.13;;;14.80;99.90;;;;;;5009269;28;20514;-75
2022/10/15 12:03:22;;;;;;;19.75;14.75;;;14.90;99.90;;;;;;4992117;28;20053;-75
2022/10/15 12:06:02;;;;;;;18.70;14.23;;;14.80;99.90;;;;;;5008964;28;20038;-75
2022/10/15 12:08:32;;;;;;;19.77;14.50;;;14.90;99.90;;;;;;4989963;28;20031;-75
2022/10/15 12:11:22;;;;;;;22.48;14.43;;;14.90;99.90;;;;;;4978511;28;20074;-75
2022/10/15 12:14:22;;;;;;;24.08;15.10;;;14.90;99.90;;;;;;4976670;28;20097;-75
2022/10/15 12:17:05;;;;;;;22.40;14.65;;;15.00;99.90;;;;;;4977290;28;20443;-75
2022/10/15 12:19:47;;;;;;;19.67;13.35;;;15.00;99.90;;;;;;5009447;28;20085;-75
2022/10/15 12:22:29;;;;;;;19.42;13.60;;;15.00;99.90;;;;;;5008501;28;20042;-74
2022/10/15 12:24:55;;;;;;;20.83;14.55;;;15.00;99.90;;;;;;4993219;28;20043;-75
2022/10/15 12:27:33;;;;;;;19.48;13.43;;;15.10;99.90;;;;;;4993499;28;20061;-75
2022/10/15 12:29:58;;;;;;;19.83;13.90;;;15.00;99.90;;;;;;4993992;28;20410;-75
2022/10/15 12:32:28;;;;;;;20.33;13.98;;;15.00;99.90;;;;;;4991842;28;20042;-75
2022/10/15 12:34:55;;;;;;;19.80;14.32;;;15.00;99.90;;;;;;4976607;28;20382;-74
2022/10/15 12:37:24;;;;;;;19.55;14.10;;;15.00;99.90;;;;;;4977071;28;20042;-74
2022/10/15 12:39:57;;;;;;;21.02;14.68;;;15.00;99.90;;;;;;5025493;28;20047;-74
2022/10/15 12:42:34;;;;;;;22.60;15.80;;;15.00;99.90;;;;;;4991939;28;20504;-74
2022/10/15 12:45:03;;;;;;;19.48;14.05;;;15.00;99.90;;;;;;4993268;28;20430;-74
2022/10/15 12:47:48;;;;;;;21.75;14.27;;;15.00;99.90;;;;;;4991476;28;20493;-74
2022/10/15 12:50:27;;;;;;;19.83;13.13;;;15.00;99.90;;;;;;4992561;28;20056;-74